Terminal Aerodrome Forecast
Issued by NWS

Home | Current Version | Previous Version | Text Only | Print | Product List | Glossary On
Versions: 1 2 3 4 5 6 7 8 9 10 11 12 13 14 15 16 17 18 19 20 21 22 23 24 25 26 27 28 29
000
FTUS43 KGRB 181739
TAFMTW
TAF
KMTW 181739Z 1818/1918 14010KT P6SM VCSH BKN035
      TEMPO 1818/1822 5SM -TSRA BR BKN025CB
     FM182200 35006KT P6SM VCSH SCT017 BKN035
     FM190200 02005KT P6SM SCT015 BKN035
     FM190600 03006KT 5SM BR SCT009 OVC015
      TEMPO 1907/1911 1SM BR BKN009
     FM191100 03008KT 5SM BR FEW009 OVC018
     FM191500 03008KT P6SM BKN030=

USA.gov is the U.S. government's official web portal to all federal, state and local government web resources and services.